createdAt,value
2019-05-11T00:02:23.855Z,3.90
2019-05-11T00:04:52.432Z,3.93
2019-05-11T00:07:21.019Z,4.20
2019-05-11T00:09:58.009Z,4.50
2019-05-11T00:12:19.840Z,3.90
2019-05-11T00:14:48.452Z,4.43
2019-05-11T00:17:17.003Z,4.50
2019-05-11T00:19:45.586Z,3.63
2019-05-11T00:22:14.130Z,5.23
2019-05-11T00:24:42.696Z,4.27
2019-05-11T00:27:11.178Z,5.03
2019-05-11T00:29:39.767Z,4.80
2019-05-11T00:32:08.334Z,4.60
2019-05-11T00:34:36.888Z,5.20
2019-05-11T00:37:05.443Z,4.77
2019-05-11T00:39:34.020Z,4.50
2019-05-11T00:42:02.520Z,4.50
2019-05-11T00:44:31.076Z,4.43
2019-05-11T00:46:59.624Z,4.80
2019-05-11T00:49:28.101Z,4.63
2019-05-11T00:51:56.628Z,4.43
2019-05-11T00:54:25.174Z,4.43
2019-05-11T00:56:53.676Z,4.63
2019-05-11T00:59:22.467Z,5.60
2019-05-11T01:01:51.048Z,5.20
2019-05-11T01:04:21.133Z,4.83
2019-05-11T01:06:49.694Z,4.53
2019-05-11T01:09:18.215Z,4.80
2019-05-11T01:11:46.827Z,5.10
2019-05-11T01:14:15.388Z,4.43
2019-05-11T01:16:44.029Z,4.50
2019-05-11T01:19:12.512Z,5.20
2019-05-11T01:21:41.048Z,5.20
2019-05-11T01:24:09.584Z,5.53
2019-05-11T01:26:38.166Z,5.37
2019-05-11T01:29:06.723Z,5.27
2019-05-11T01:31:35.283Z,5.40
2019-05-11T01:34:03.840Z,7.10
2019-05-11T01:36:32.413Z,6.43
2019-05-11T01:39:00.980Z,6.70
2019-05-11T01:41:29.499Z,6.00
2019-05-11T01:43:58.046Z,5.27
2019-05-11T01:46:26.627Z,5.93
2019-05-11T01:48:55.121Z,6.33
2019-05-11T01:51:23.697Z,5.57
2019-05-11T01:53:52.272Z,5.10
2019-05-11T01:56:20.778Z,4.90
2019-05-11T01:58:49.342Z,6.10
2019-05-11T02:01:17.879Z,6.30
2019-05-11T02:03:46.421Z,6.20
2019-05-11T02:06:15.016Z,5.00
2019-05-11T02:08:43.530Z,5.30
2019-05-11T02:11:15.872Z,4.90
2019-05-11T02:13:42.311Z,6.30
2019-05-11T02:16:10.886Z,5.17
2019-05-11T02:18:39.380Z,5.43
2019-05-11T02:21:07.993Z,5.30
2019-05-11T02:23:36.507Z,6.50
2019-05-11T02:26:05.013Z,5.70
2019-05-11T02:28:33.570Z,5.90
2019-05-11T02:31:02.063Z,5.77
2019-05-11T02:33:30.647Z,6.30
2019-05-11T02:35:59.197Z,5.50
2019-05-11T02:38:27.722Z,5.43
2019-05-11T02:40:56.269Z,5.80
2019-05-11T02:43:24.782Z,5.83
2019-05-11T02:45:53.271Z,6.53
2019-05-11T02:48:24.353Z,6.80
2019-05-11T02:50:54.044Z,5.53
2019-05-11T02:53:22.824Z,6.27
2019-05-11T02:55:51.572Z,7.00
2019-05-11T02:58:20.149Z,6.33
2019-05-11T03:00:49.184Z,6.90
2019-05-11T03:03:17.788Z,6.70
2019-05-11T03:05:47.807Z,6.90
2019-05-11T03:08:16.308Z,6.43
2019-05-11T03:10:44.877Z,6.10
2019-05-11T03:13:13.561Z,6.53
2019-05-11T03:15:42.131Z,6.90
2019-05-11T03:18:10.702Z,7.00
2019-05-11T03:20:39.246Z,6.47
2019-05-11T03:23:07.839Z,7.13
2019-05-11T03:25:36.334Z,7.30
2019-05-11T03:28:04.910Z,6.90
2019-05-11T03:30:33.391Z,7.47
2019-05-11T03:33:01.974Z,7.47
2019-05-11T03:35:30.811Z,7.13
2019-05-11T03:37:59.401Z,6.90
2019-05-11T03:40:27.961Z,7.07
2019-05-11T03:42:56.549Z,7.33
2019-05-11T03:45:25.149Z,8.37
2019-05-11T03:47:53.714Z,8.60
2019-05-11T03:50:22.402Z,8.80
2019-05-11T03:52:50.995Z,9.33
2019-05-11T03:55:19.564Z,8.73
2019-05-11T03:57:48.106Z,9.03
2019-05-11T04:00:17.822Z,9.57
2019-05-11T04:02:46.407Z,10.10
2019-05-11T04:05:15.040Z,8.53
2019-05-11T04:07:43.654Z,10.27
2019-05-11T04:10:12.454Z,7.40
2019-05-11T04:12:40.945Z,8.03
2019-05-11T04:15:10.121Z,7.90
2019-05-11T04:17:38.628Z,8.90
2019-05-11T04:20:07.572Z,8.97
2019-05-11T04:22:36.134Z,9.43
2019-05-11T04:25:05.949Z,9.80
2019-05-11T04:27:36.072Z,10.70
2019-05-11T04:30:06.728Z,10.70
2019-05-11T04:32:35.262Z,10.77
2019-05-11T04:35:04.496Z,11.60
2019-05-11T04:37:33.227Z,11.33
2019-05-11T04:40:01.787Z,11.13
2019-05-11T04:42:30.380Z,11.07
2019-05-11T04:44:59.144Z,11.37
2019-05-11T04:47:27.703Z,13.37
2019-05-11T04:49:56.287Z,11.50
2019-05-11T04:52:24.852Z,12.10
2019-05-11T04:54:54.950Z,11.23
2019-05-11T04:57:23.443Z,10.90
2019-05-11T04:59:52.124Z,10.93
2019-05-11T05:02:21.844Z,10.73
2019-05-11T05:04:50.550Z,10.77
2019-05-11T05:07:22.077Z,10.20
2019-05-11T05:09:50.747Z,10.13
2019-05-11T05:12:19.232Z,11.43
2019-05-11T05:14:47.810Z,12.03
2019-05-11T05:17:20.928Z,10.50
2019-05-11T05:19:49.484Z,10.63
2019-05-11T05:22:17.981Z,10.40
2019-05-11T05:24:46.518Z,9.37
2019-05-11T05:27:15.049Z,8.40
2019-05-11T05:29:43.583Z,9.70
2019-05-11T05:32:12.135Z,8.93
2019-05-11T05:34:40.620Z,9.07
2019-05-11T05:37:09.126Z,8.40
2019-05-11T05:39:37.638Z,8.50
2019-05-11T05:42:08.177Z,9.03
2019-05-11T05:44:36.388Z,8.23
2019-05-11T05:47:04.934Z,7.80
2019-05-11T05:49:33.479Z,7.10
2019-05-11T05:52:02.071Z,6.47
2019-05-11T05:54:30.581Z,7.27
2019-05-11T05:56:59.316Z,6.30
2019-05-11T05:59:27.989Z,6.40
2019-05-11T06:01:56.607Z,6.70
2019-05-11T06:04:25.135Z,6.20
2019-05-11T06:06:53.782Z,7.00
2019-05-11T06:09:22.334Z,6.50
2019-05-11T06:11:50.958Z,7.00
2019-05-11T06:14:19.525Z,6.30
2019-05-11T06:16:48.125Z,6.23
2019-05-11T06:19:16.675Z,6.50
2019-05-11T06:21:45.259Z,6.50
2019-05-11T06:24:13.845Z,6.53
2019-05-11T06:26:42.485Z,5.80
2019-05-11T06:29:11.128Z,6.00
2019-05-11T06:31:39.843Z,6.60
2019-05-11T06:34:08.435Z,5.93
2019-05-11T06:36:37.010Z,6.00
2019-05-11T06:39:07.837Z,4.90
2019-05-11T06:41:37.528Z,5.20
2019-05-11T06:44:06.305Z,5.53
2019-05-11T06:46:35.317Z,5.37
2019-05-11T06:49:04.107Z,4.27
2019-05-11T06:51:32.847Z,4.90
2019-05-11T06:54:01.453Z,4.63
2019-05-11T06:56:30.059Z,4.43
2019-05-11T06:58:58.753Z,3.97
2019-05-11T07:01:27.471Z,4.77
2019-05-11T07:03:56.132Z,4.23
2019-05-11T07:06:28.171Z,3.87
2019-05-11T07:08:54.821Z,3.83
2019-05-11T07:11:23.402Z,4.27
2019-05-11T07:13:52.749Z,4.03
2019-05-11T07:16:21.239Z,4.60
2019-05-11T07:18:49.775Z,4.07
2019-05-11T07:21:18.303Z,3.50
2019-05-11T07:23:46.872Z,3.40
2019-05-11T07:26:15.473Z,3.37
2019-05-11T07:28:44.044Z,4.00
2019-05-11T07:31:12.655Z,3.23
2019-05-11T07:33:41.405Z,3.50
2019-05-11T07:36:10.055Z,3.83
2019-05-11T07:38:38.654Z,3.50
2019-05-11T07:41:08.772Z,3.60
2019-05-11T07:43:38.130Z,3.50
2019-05-11T07:46:07.791Z,3.40
2019-05-11T07:48:38.606Z,2.93
2019-05-11T07:51:08.997Z,3.00
2019-05-11T07:53:38.188Z,3.33
2019-05-11T07:56:08.320Z,3.60
2019-05-11T07:58:38.682Z,3.30
2019-05-11T08:01:08.721Z,2.47
2019-05-11T08:03:38.862Z,3.03
2019-05-11T08:06:08.895Z,2.40
2019-05-11T08:08:38.417Z,2.50
2019-05-11T08:11:08.122Z,2.30
2019-05-11T08:13:38.781Z,2.23
2019-05-11T08:16:08.267Z,2.37
2019-05-11T08:18:38.686Z,2.50
2019-05-11T08:21:08.877Z,2.50
2019-05-11T08:23:37.779Z,2.73
2019-05-11T08:26:08.410Z,2.73
2019-05-11T08:28:38.113Z,2.20
2019-05-11T08:31:08.053Z,2.57
2019-05-11T08:33:38.888Z,2.50
2019-05-11T08:36:08.314Z,2.47
2019-05-11T08:38:37.775Z,2.23
2019-05-11T08:41:08.066Z,3.27
2019-05-11T08:43:38.840Z,3.13
2019-05-11T08:46:08.730Z,2.40
2019-05-11T08:48:38.866Z,2.87
2019-05-11T08:51:08.411Z,3.47
2019-05-11T08:53:38.753Z,2.20
2019-05-11T08:56:11.107Z,2.90
2019-05-11T08:58:38.147Z,2.90
2019-05-11T09:01:08.735Z,2.57
2019-05-11T09:03:38.740Z,3.13
2019-05-11T09:06:08.410Z,2.83
2019-05-11T09:08:58.285Z,2.30
2019-05-11T09:11:28.355Z,3.00
2019-05-11T09:13:57.857Z,2.70
2019-05-11T09:16:28.905Z,2.87
2019-05-11T09:18:58.136Z,2.73
2019-05-11T09:21:28.126Z,2.30
2019-05-11T09:23:57.834Z,2.80
2019-05-11T09:26:28.679Z,2.43
2019-05-11T09:28:58.223Z,2.77
2019-05-11T09:31:28.002Z,2.33
2019-05-11T09:33:58.416Z,2.90
2019-05-11T09:36:28.510Z,2.57
2019-05-11T09:38:58.167Z,2.93
2019-05-11T09:41:28.895Z,2.50
2019-05-11T09:43:58.664Z,2.70
2019-05-11T09:46:27.990Z,2.63
2019-05-11T09:48:58.782Z,2.37
2019-05-11T09:51:28.788Z,3.20
2019-05-11T09:53:58.722Z,3.27
2019-05-11T09:56:28.769Z,3.17
2019-05-11T09:58:58.151Z,3.43
2019-05-11T10:01:26.779Z,2.53
2019-05-11T10:03:55.465Z,3.93
2019-05-11T10:06:24.052Z,3.10
2019-05-11T10:08:52.625Z,2.90
2019-05-11T10:11:21.183Z,3.00
2019-05-11T10:13:49.731Z,2.80
2019-05-11T10:16:18.349Z,2.57
2019-05-11T10:18:49.122Z,3.10
2019-05-11T10:21:18.760Z,2.93
2019-05-11T10:23:48.922Z,2.70
2019-05-11T10:26:18.645Z,2.40
2019-05-11T10:28:48.270Z,2.80
2019-05-11T10:31:18.141Z,2.73
2019-05-11T10:33:48.873Z,2.50
2019-05-11T10:36:18.887Z,2.97
2019-05-11T10:38:48.703Z,2.53
2019-05-11T10:41:18.323Z,3.53
2019-05-11T10:43:48.949Z,2.73
2019-05-11T10:46:23.071Z,2.97
2019-05-11T10:48:48.456Z,2.60
2019-05-11T10:51:18.386Z,2.37
2019-05-11T10:53:51.700Z,3.20
2019-05-11T10:56:18.005Z,3.77
2019-05-11T10:58:48.257Z,2.73
2019-05-11T11:01:18.169Z,2.60
2019-05-11T11:03:48.400Z,3.47
2019-05-11T11:06:18.803Z,3.33
2019-05-11T11:08:50.400Z,3.13
2019-05-11T11:11:18.979Z,2.70
2019-05-11T11:13:48.190Z,3.50
2019-05-11T11:16:32.684Z,2.63
2019-05-11T11:18:48.539Z,2.90
2019-05-11T11:21:22.420Z,2.70
2019-05-11T11:23:48.168Z,3.23
2019-05-11T11:26:18.475Z,3.17
2019-05-11T11:28:47.746Z,2.90
2019-05-11T11:31:18.964Z,3.83
2019-05-11T11:33:48.894Z,3.07
2019-05-11T11:36:17.959Z,3.50
2019-05-11T11:38:47.770Z,2.90
2019-05-11T11:41:18.597Z,3.27
2019-05-11T11:43:48.418Z,2.87
2019-05-11T11:46:18.761Z,3.73
2019-05-11T11:48:48.845Z,4.00
2019-05-11T11:51:18.733Z,3.80
2019-05-11T11:53:47.908Z,3.90
2019-05-11T11:56:18.829Z,3.37
2019-05-11T11:58:48.762Z,2.90
2019-05-11T12:01:18.917Z,3.20
2019-05-11T12:03:48.725Z,2.80
2019-05-11T12:06:18.372Z,3.50
2019-05-11T12:08:49.376Z,4.00
2019-05-11T12:11:18.687Z,3.07
2019-05-11T12:13:47.803Z,3.80
2019-05-11T12:16:18.142Z,3.40
2019-05-11T12:18:48.676Z,3.07
2019-05-11T12:21:18.555Z,3.57
2019-05-11T12:23:48.550Z,3.83
2019-05-11T12:26:17.846Z,3.83
2019-05-11T12:28:48.760Z,4.17
2019-05-11T12:31:18.511Z,3.30
2019-05-11T12:33:48.203Z,3.67
2019-05-11T12:36:18.747Z,2.90
2019-05-11T12:38:48.913Z,3.40
2019-05-11T12:41:18.963Z,3.40
2019-05-11T12:43:48.932Z,2.80
2019-05-11T12:46:18.914Z,3.00
2019-05-11T12:48:48.530Z,3.20
2019-05-11T12:51:18.566Z,3.47
2019-05-11T12:53:47.780Z,2.90
2019-05-11T12:56:18.715Z,3.30
2019-05-11T12:58:48.921Z,3.33
2019-05-11T13:01:18.818Z,2.57
2019-05-11T13:03:49.254Z,3.20
2019-05-11T13:06:19.074Z,2.97
2019-05-11T13:08:48.255Z,2.70
2019-05-11T13:11:18.676Z,2.63
2019-05-11T13:13:48.423Z,2.77
2019-05-11T13:16:18.294Z,2.50
2019-05-11T13:18:48.711Z,3.57
2019-05-11T13:21:18.272Z,3.93
2019-05-11T13:23:48.919Z,2.70
2019-05-11T13:26:18.039Z,2.83
2019-05-11T13:28:48.465Z,2.80
2019-05-11T13:31:18.703Z,3.40
2019-05-11T13:33:47.978Z,3.37
2019-05-11T13:36:18.580Z,3.73
2019-05-11T13:38:48.295Z,4.40
2019-05-11T13:41:18.763Z,3.10
2019-05-11T13:43:48.525Z,4.00
2019-05-11T13:46:18.017Z,3.97
2019-05-11T13:48:47.651Z,4.03
2019-05-11T13:51:18.353Z,3.33
2019-05-11T13:53:48.207Z,4.50
2019-05-11T13:56:18.385Z,3.40
2019-05-11T13:58:48.858Z,3.77
2019-05-11T14:01:18.389Z,4.00
2019-05-11T14:03:48.441Z,3.77
2019-05-11T14:06:18.418Z,3.53
2019-05-11T14:08:48.181Z,3.20
2019-05-11T14:11:18.179Z,3.60
2019-05-11T14:13:48.050Z,4.10
2019-05-11T14:16:18.663Z,4.20
2019-05-11T14:18:48.792Z,4.33
2019-05-11T14:21:18.488Z,3.97
2019-05-11T14:23:48.387Z,3.80
2019-05-11T14:26:19.163Z,3.77
2019-05-11T14:28:48.096Z,4.33
2019-05-11T14:31:18.892Z,4.70
2019-05-11T14:33:48.899Z,4.07
2019-05-11T14:36:18.422Z,4.10
2019-05-11T14:38:48.743Z,4.77
2019-05-11T14:41:18.152Z,5.10
2019-05-11T14:43:48.977Z,4.43
2019-05-11T14:46:18.089Z,4.53
2019-05-11T14:48:48.141Z,4.70
2019-05-11T14:51:17.959Z,4.80
2019-05-11T14:54:08.110Z,4.73
2019-05-11T14:56:38.008Z,5.33
2019-05-11T14:59:08.970Z,5.10
2019-05-11T15:01:38.245Z,5.33
2019-05-11T15:04:09.132Z,5.67
2019-05-11T15:06:38.652Z,5.27
2019-05-11T15:09:08.439Z,6.10
2019-05-11T15:11:38.830Z,5.70
2019-05-11T15:14:08.200Z,5.90
2019-05-11T15:16:38.432Z,5.10
2019-05-11T15:19:08.033Z,5.03
2019-05-11T15:21:38.654Z,5.47
2019-05-11T15:24:09.068Z,5.70
2019-05-11T15:26:38.162Z,5.03
2019-05-11T15:29:08.107Z,5.90
2019-05-11T15:31:38.134Z,5.40
2019-05-11T15:34:08.528Z,5.40
2019-05-11T15:36:38.631Z,5.33
2019-05-11T15:39:07.982Z,6.23
2019-05-11T15:41:38.582Z,5.80
2019-05-11T15:44:11.443Z,6.97
2019-05-11T15:46:38.895Z,6.03
2019-05-11T15:49:08.865Z,6.97
2019-05-11T15:51:40.777Z,7.10
2019-05-11T15:54:08.032Z,8.70
2019-05-11T15:56:38.564Z,8.80
2019-05-11T15:59:08.643Z,9.40
2019-05-11T16:01:38.266Z,8.63
2019-05-11T16:04:09.105Z,8.50
2019-05-11T16:06:37.939Z,7.17
2019-05-11T16:09:08.503Z,7.10
2019-05-11T16:11:38.716Z,6.03
2019-05-11T16:14:08.558Z,6.73
2019-05-11T16:16:39.078Z,7.63
2019-05-11T16:19:14.462Z,6.77
2019-05-11T16:21:38.472Z,6.47
2019-05-11T16:24:08.003Z,6.37
2019-05-11T16:26:36.949Z,5.20
2019-05-11T16:29:05.522Z,6.03
2019-05-11T16:31:34.117Z,6.10
2019-05-11T16:34:02.893Z,6.07
2019-05-11T16:36:31.720Z,6.60
2019-05-11T16:39:00.312Z,6.70
2019-05-11T16:41:29.257Z,6.00
2019-05-11T16:43:59.046Z,6.10
2019-05-11T16:46:28.464Z,5.20
2019-05-11T16:48:57.879Z,5.80
2019-05-11T16:51:28.387Z,6.10
2019-05-11T16:53:58.730Z,5.43
2019-05-11T16:56:27.231Z,6.23
2019-05-11T16:58:58.878Z,6.20
2019-05-11T17:01:26.047Z,7.03
2019-05-11T17:03:54.819Z,5.43
2019-05-11T17:06:23.687Z,6.10
2019-05-11T17:08:52.332Z,6.43
2019-05-11T17:11:20.916Z,5.73
2019-05-11T17:13:49.512Z,5.70
2019-05-11T17:16:19.710Z,5.50
2019-05-11T17:18:48.593Z,6.40
2019-05-11T17:21:18.276Z,6.13
2019-05-11T17:23:48.818Z,6.33
2019-05-11T17:26:19.017Z,6.50
2019-05-11T17:28:48.928Z,7.27
2019-05-11T17:31:18.893Z,6.87
2019-05-11T17:33:47.778Z,6.50
2019-05-11T17:36:18.515Z,7.07
2019-05-11T17:38:47.937Z,5.57
2019-05-11T17:41:16.815Z,6.90
2019-05-11T17:43:47.796Z,7.23
2019-05-11T17:46:18.240Z,9.90
2019-05-11T17:48:46.122Z,9.33
2019-05-11T17:51:21.456Z,8.83
2019-05-11T17:53:48.209Z,7.67
2019-05-11T17:56:16.976Z,7.50
2019-05-11T17:58:48.206Z,7.50
2019-05-11T18:01:18.497Z,7.77
2019-05-11T18:03:46.607Z,9.23
2019-05-11T18:06:15.349Z,10.17
2019-05-11T18:08:44.254Z,11.90
2019-05-11T18:11:12.870Z,12.70
2019-05-11T18:13:43.892Z,13.20
2019-05-11T18:16:14.012Z,12.40
2019-05-11T18:18:42.644Z,12.40
2019-05-11T18:21:11.334Z,12.87
2019-05-11T18:23:41.738Z,11.87
2019-05-11T18:26:10.336Z,11.17
2019-05-11T18:28:38.985Z,10.10
2019-05-11T18:31:07.691Z,9.40
2019-05-11T18:33:38.174Z,8.47
2019-05-11T18:36:08.059Z,9.17
2019-05-11T18:38:38.108Z,9.80
2019-05-11T18:41:07.036Z,9.43
2019-05-11T18:43:37.621Z,8.10
2019-05-11T18:46:08.355Z,9.87
2019-05-11T18:48:38.105Z,8.80
2019-05-11T18:51:08.704Z,8.80
2019-05-11T18:53:37.190Z,7.60
2019-05-11T18:56:08.873Z,8.73
2019-05-11T18:58:38.360Z,8.03
2019-05-11T19:01:07.585Z,7.97
2019-05-11T19:03:38.351Z,8.20
2019-05-11T19:06:09.075Z,7.83
2019-05-11T19:08:38.494Z,7.30
2019-05-11T19:11:09.246Z,7.60
2019-05-11T19:13:38.703Z,8.27
2019-05-11T19:16:08.649Z,6.47
2019-05-11T19:18:38.745Z,6.43
2019-05-11T19:21:09.151Z,6.57
2019-05-11T19:23:38.106Z,6.40
2019-05-11T19:26:08.407Z,6.37
2019-05-11T19:28:38.470Z,8.80
2019-05-11T19:31:11.268Z,6.80
2019-05-11T19:33:39.141Z,6.57
2019-05-11T19:36:07.965Z,6.60
2019-05-11T19:38:38.435Z,7.07
2019-05-11T19:41:08.052Z,7.50
2019-05-11T19:43:38.191Z,5.50
2019-05-11T19:46:08.881Z,5.80
2019-05-11T19:48:40.028Z,6.20
2019-05-11T19:51:11.719Z,5.60
2019-05-11T19:53:39.011Z,5.10
2019-05-11T19:56:07.851Z,5.17
2019-05-11T19:58:38.106Z,5.40
2019-05-11T20:01:09.572Z,5.17
2019-05-11T20:03:38.268Z,5.30
2019-05-11T20:06:08.944Z,4.67
2019-05-11T20:08:37.704Z,5.30
2019-05-11T20:11:08.273Z,4.73
2019-05-11T20:13:38.675Z,5.03
2019-05-11T20:16:08.243Z,5.17
2019-05-11T20:18:37.073Z,5.40
2019-05-11T20:21:16.656Z,4.53
2019-05-11T20:23:37.924Z,4.30
2019-05-11T20:26:08.861Z,3.97
2019-05-11T20:28:37.911Z,4.50
2019-05-11T20:31:08.061Z,3.40
2019-05-11T20:33:38.525Z,3.93
2019-05-11T20:36:08.885Z,3.40
2019-05-11T20:38:38.395Z,3.67
2019-05-11T20:41:08.706Z,3.97
2019-05-11T20:43:37.304Z,3.73
2019-05-11T20:46:08.029Z,2.87
2019-05-11T20:48:38.162Z,3.07
2019-05-11T20:51:08.111Z,2.70
2019-05-11T20:53:38.781Z,2.80
2019-05-11T20:56:08.579Z,2.90
2019-05-11T20:58:59.557Z,2.40
2019-05-11T21:01:28.733Z,2.63
2019-05-11T21:03:58.438Z,2.30
2019-05-11T21:06:29.410Z,2.60
2019-05-11T21:08:57.715Z,2.43
2019-05-11T21:11:26.439Z,2.70
2019-05-11T21:13:55.170Z,2.03
2019-05-11T21:16:23.793Z,2.47
2019-05-11T21:18:53.702Z,3.17
2019-05-11T21:21:22.277Z,2.70
2019-05-11T21:23:50.901Z,3.00
2019-05-11T21:26:19.491Z,2.50
2019-05-11T21:28:48.807Z,3.77
2019-05-11T21:31:20.281Z,2.70
2019-05-11T21:33:48.850Z,3.80
2019-05-11T21:36:17.996Z,3.10
2019-05-11T21:38:48.176Z,4.13
2019-05-11T21:41:16.977Z,5.50
2019-05-11T21:43:45.601Z,2.70
2019-05-11T21:46:14.428Z,3.13
2019-05-11T21:48:43.021Z,2.10
2019-05-11T21:51:11.601Z,2.27
2019-05-11T21:53:40.192Z,2.17
2019-05-11T21:56:08.789Z,2.60
2019-05-11T21:58:37.768Z,2.07
2019-05-11T22:01:07.011Z,1.77
2019-05-11T22:03:35.691Z,1.73
2019-05-11T22:06:04.309Z,1.77
2019-05-11T22:08:32.873Z,2.47
2019-05-11T22:11:01.608Z,1.80
2019-05-11T22:13:30.242Z,1.90
2019-05-11T22:15:58.811Z,2.33
2019-05-11T22:18:31.293Z,1.97
2019-05-11T22:20:58.114Z,1.70
2019-05-11T22:23:28.156Z,2.20
2019-05-11T22:25:58.762Z,1.73
2019-05-11T22:28:28.464Z,2.20
2019-05-11T22:30:57.219Z,1.87
2019-05-11T22:33:25.723Z,2.60
2019-05-11T22:35:54.360Z,2.57
2019-05-11T22:38:22.914Z,2.30
2019-05-11T22:40:51.469Z,2.27
2019-05-11T22:43:20.043Z,1.87
2019-05-11T22:45:48.681Z,2.83
2019-05-11T22:48:17.213Z,3.17
2019-05-11T22:50:48.056Z,1.83
2019-05-11T22:53:18.580Z,2.30
2019-05-11T22:55:48.419Z,8.80
2019-05-11T22:58:17.871Z,2.53
2019-05-11T23:00:46.521Z,2.67
2019-05-11T23:03:15.100Z,2.03
2019-05-11T23:05:43.775Z,2.67
2019-05-11T23:08:12.328Z,2.37
2019-05-11T23:10:43.251Z,2.70
2019-05-11T23:13:11.870Z,2.03
2019-05-11T23:15:40.702Z,2.13
2019-05-11T23:18:09.198Z,2.00
2019-05-11T23:20:38.736Z,2.03
2019-05-11T23:23:08.779Z,2.23
2019-05-11T23:25:37.643Z,2.27
2019-05-11T23:28:06.197Z,2.23
2019-05-11T23:30:34.770Z,1.83
2019-05-11T23:33:03.344Z,2.40
2019-05-11T23:35:31.857Z,2.40
2019-05-11T23:38:00.384Z,2.37
2019-05-11T23:40:28.873Z,1.87
2019-05-11T23:42:57.919Z,1.93
2019-05-11T23:45:27.945Z,2.50
2019-05-11T23:47:58.670Z,1.97
2019-05-11T23:50:28.198Z,2.53
2019-05-11T23:53:06.550Z,2.60
2019-05-11T23:55:29.226Z,1.80
2019-05-11T23:57:57.779Z,2.40
